createdAt,value
2023-01-21T00:00:52.959Z,7.90
2023-01-21T00:01:45.529Z,8.13
2023-01-21T00:02:40.683Z,7.20
2023-01-21T00:03:33.309Z,7.90
2023-01-21T00:04:28.769Z,8.05
2023-01-21T00:05:21.315Z,8.35
2023-01-21T00:06:17.258Z,7.38
2023-01-21T00:07:09.822Z,7.78
2023-01-21T00:08:05.001Z,7.32
2023-01-21T00:08:59.467Z,7.05
2023-01-21T00:09:54.668Z,7.80
2023-01-21T00:10:47.231Z,7.55
2023-01-21T00:11:42.376Z,6.95
2023-01-21T00:12:34.886Z,7.97
2023-01-21T00:13:32.660Z,6.60
2023-01-21T00:14:25.198Z,7.25
2023-01-21T00:15:20.325Z,7.68
2023-01-21T00:16:13.248Z,6.80
2023-01-21T00:17:08.472Z,6.93
2023-01-21T00:18:01.017Z,8.00
2023-01-21T00:18:56.165Z,6.80
2023-01-21T00:19:48.714Z,6.88
2023-01-21T00:20:43.834Z,7.10
2023-01-21T00:21:36.381Z,7.28
2023-01-21T00:22:31.743Z,7.03
2023-01-21T00:23:24.280Z,6.65
2023-01-21T00:24:19.628Z,7.30
2023-01-21T00:25:12.139Z,7.43
2023-01-21T00:26:09.611Z,7.20
2023-01-21T00:27:02.171Z,7.40
2023-01-21T00:27:57.332Z,7.43
2023-01-21T00:28:52.466Z,6.70
2023-01-21T00:29:47.580Z,7.20
2023-01-21T00:30:41.746Z,6.45
2023-01-21T00:31:37.133Z,6.30
2023-01-21T00:32:29.797Z,7.07
2023-01-21T00:33:24.956Z,6.90
2023-01-21T00:34:17.506Z,6.85
2023-01-21T00:35:13.079Z,6.45
2023-01-21T00:36:07.611Z,7.15
2023-01-21T00:37:02.779Z,6.90
2023-01-21T00:37:56.355Z,6.77
2023-01-21T00:38:52.118Z,7.18
2023-01-21T00:39:44.684Z,6.53
2023-01-21T00:40:39.793Z,6.85
2023-01-21T00:41:32.353Z,6.82
2023-01-21T00:42:28.158Z,7.00
2023-01-21T00:43:20.721Z,6.63
2023-01-21T00:44:19.386Z,6.47
2023-01-21T00:45:12.045Z,6.40
2023-01-21T00:46:05.021Z,6.35
2023-01-21T00:47:00.213Z,7.10
2023-01-21T00:47:52.781Z,6.38
2023-01-21T00:48:48.241Z,7.20
2023-01-21T00:49:40.797Z,6.88
2023-01-21T00:50:35.986Z,6.70
2023-01-21T00:51:28.526Z,6.80
2023-01-21T00:52:23.667Z,7.70
2023-01-21T00:53:16.220Z,7.28
2023-01-21T00:54:11.469Z,7.60
2023-01-21T00:55:04.632Z,8.05
2023-01-21T00:56:02.900Z,7.78
2023-01-21T00:56:55.880Z,8.10
2023-01-21T00:57:53.188Z,7.50
2023-01-21T00:58:45.900Z,6.95
2023-01-21T00:59:43.803Z,6.65
2023-01-21T01:00:36.325Z,6.50
2023-01-21T01:01:34.652Z,6.90
2023-01-21T01:02:27.376Z,6.97
2023-01-21T01:03:22.580Z,6.22
2023-01-21T01:04:15.293Z,6.55
2023-01-21T01:05:11.409Z,6.82
2023-01-21T01:06:04.642Z,7.13
2023-01-21T01:06:59.772Z,7.30
2023-01-21T01:07:52.329Z,7.13
2023-01-21T01:08:49.587Z,6.82
2023-01-21T01:09:42.120Z,6.75
2023-01-21T01:10:40.192Z,6.72
2023-01-21T01:11:32.774Z,7.10
2023-01-21T01:12:27.945Z,7.20
2023-01-21T01:13:20.476Z,7.20
2023-01-21T01:14:15.676Z,6.53
2023-01-21T01:15:11.581Z,6.93
2023-01-21T01:16:07.728Z,7.38
2023-01-21T01:17:00.317Z,6.07
2023-01-21T01:17:55.445Z,6.13
2023-01-21T01:18:48.438Z,6.40
2023-01-21T01:19:43.626Z,6.18
2023-01-21T01:20:36.149Z,7.07
2023-01-21T01:21:31.406Z,6.53
2023-01-21T01:22:24.102Z,7.15
2023-01-21T01:23:19.288Z,6.60
2023-01-21T01:24:11.931Z,6.53
2023-01-21T01:25:07.507Z,6.53
2023-01-21T01:26:01.473Z,7.55
2023-01-21T01:26:56.665Z,6.25
2023-01-21T01:27:49.240Z,6.82
2023-01-21T01:28:44.428Z,7.28
2023-01-21T01:29:36.997Z,6.68
2023-01-21T01:30:34.853Z,6.93
2023-01-21T01:31:27.461Z,6.75
2023-01-21T01:32:22.658Z,6.63
2023-01-21T01:33:15.224Z,6.38
2023-01-21T01:34:10.359Z,6.97
2023-01-21T01:35:02.886Z,6.57
2023-01-21T01:35:58.045Z,6.77
2023-01-21T01:36:50.657Z,6.70
2023-01-21T01:37:45.790Z,6.60
2023-01-21T01:38:38.334Z,7.32
2023-01-21T01:39:34.169Z,7.05
2023-01-21T01:40:26.759Z,6.78
2023-01-21T01:41:24.119Z,7.53
2023-01-21T01:42:17.588Z,6.47
2023-01-21T01:43:19.363Z,6.53
2023-01-21T01:44:41.674Z,6.30
2023-01-21T01:45:39.732Z,6.25
2023-01-21T01:46:36.585Z,7.03
2023-01-21T01:47:32.968Z,6.68
2023-01-21T01:48:30.492Z,7.60
2023-01-21T01:49:23.058Z,7.32
2023-01-21T01:50:21.027Z,6.13
2023-01-21T01:51:14.206Z,6.28
2023-01-21T01:52:09.898Z,7.00
2023-01-21T01:53:02.723Z,7.20
2023-01-21T01:53:58.080Z,7.07
2023-01-21T01:54:53.934Z,6.95
2023-01-21T01:55:50.003Z,6.75
2023-01-21T01:56:44.221Z,7.25
2023-01-21T01:57:43.096Z,6.20
2023-01-21T01:58:37.013Z,6.80
2023-01-21T01:59:33.653Z,7.03
2023-01-21T02:00:26.701Z,7.03
2023-01-21T02:01:25.280Z,6.50
2023-01-21T02:02:19.139Z,5.85
2023-01-21T02:03:27.024Z,7.07
2023-01-21T02:04:24.345Z,6.70
2023-01-21T02:05:16.932Z,6.75
2023-01-21T02:06:12.072Z,6.72
2023-01-21T02:07:04.847Z,6.45
2023-01-21T02:08:00.077Z,6.78
2023-01-21T02:08:52.694Z,7.45
2023-01-21T02:09:47.851Z,6.43
2023-01-21T02:10:40.436Z,6.95
2023-01-21T02:11:40.056Z,6.85
2023-01-21T02:12:32.645Z,6.97
2023-01-21T02:13:28.074Z,6.70
2023-01-21T02:14:20.644Z,7.20
2023-01-21T02:15:15.830Z,6.50
2023-01-21T02:16:23.577Z,6.30
2023-01-21T02:17:31.973Z,6.57
2023-01-21T02:18:30.555Z,6.90
2023-01-21T02:19:56.307Z,6.75
2023-01-21T02:21:04.379Z,6.57
2023-01-21T02:22:05.978Z,6.60
2023-01-21T02:23:04.194Z,6.78
2023-01-21T02:24:14.660Z,6.53
2023-01-21T02:25:39.420Z,7.15
2023-01-21T02:27:06.286Z,6.10
2023-01-21T02:28:31.608Z,6.88
2023-01-21T02:29:52.862Z,7.18
2023-01-21T02:31:20.665Z,6.18
2023-01-21T02:32:54.889Z,6.40
2023-01-21T02:34:03.954Z,6.22
2023-01-21T02:34:59.518Z,6.20
2023-01-21T02:36:00.586Z,6.10
2023-01-21T02:37:03.134Z,6.05
2023-01-21T02:38:03.151Z,6.15
2023-01-21T02:39:02.462Z,6.07
2023-01-21T02:40:09.413Z,6.50
2023-01-21T02:41:07.400Z,5.70
2023-01-21T02:42:06.921Z,6.15
2023-01-21T02:43:03.246Z,5.97
2023-01-21T02:44:08.064Z,5.95
2023-01-21T02:45:08.823Z,6.53
2023-01-21T02:46:09.188Z,6.22
2023-01-21T02:47:09.772Z,6.10
2023-01-21T02:48:11.180Z,5.63
2023-01-21T02:49:06.863Z,6.43
2023-01-21T02:50:05.895Z,5.95
2023-01-21T02:50:58.741Z,5.70
2023-01-21T02:51:53.952Z,6.85
2023-01-21T02:52:46.491Z,6.47
2023-01-21T02:53:41.799Z,6.13
2023-01-21T02:54:50.980Z,6.40
2023-01-21T02:55:46.106Z,6.03
2023-01-21T02:56:38.737Z,6.05
2023-01-21T02:57:40.495Z,5.75
2023-01-21T02:58:37.917Z,6.22
2023-01-21T02:59:30.470Z,6.28
2023-01-21T03:00:29.019Z,6.15
2023-01-21T03:01:33.833Z,5.63
2023-01-21T03:02:41.354Z,5.95
2023-01-21T03:03:58.955Z,5.90
2023-01-21T03:04:56.558Z,6.05
2023-01-21T03:06:22.294Z,6.22
2023-01-21T03:07:17.059Z,6.35
2023-01-21T03:08:15.791Z,6.38
2023-01-21T03:09:17.671Z,5.85
2023-01-21T03:10:15.597Z,5.80
2023-01-21T03:11:12.720Z,6.05
2023-01-21T03:12:21.833Z,6.05
2023-01-21T03:13:39.729Z,6.20
2023-01-21T03:14:50.858Z,5.70
2023-01-21T03:16:03.051Z,5.90
2023-01-21T03:17:00.116Z,6.03
2023-01-21T03:17:58.702Z,5.90
2023-01-21T03:18:55.609Z,5.72
2023-01-21T03:19:55.686Z,5.75
2023-01-21T03:20:51.085Z,6.53
2023-01-21T03:21:46.446Z,5.85
2023-01-21T03:22:40.011Z,6.05
2023-01-21T03:23:37.812Z,6.15
2023-01-21T03:24:30.801Z,6.75
2023-01-21T03:25:27.508Z,6.10
2023-01-21T03:26:24.122Z,5.90
2023-01-21T03:27:21.192Z,6.20
2023-01-21T03:28:17.416Z,5.90
2023-01-21T03:29:16.319Z,6.65
2023-01-21T03:30:12.584Z,7.05
2023-01-21T03:31:12.097Z,6.30
2023-01-21T03:32:07.373Z,6.95
2023-01-21T03:33:03.878Z,6.97
2023-01-21T03:34:01.622Z,7.38
2023-01-21T03:34:55.487Z,6.93
2023-01-21T03:35:52.293Z,7.00
2023-01-21T03:36:49.527Z,6.85
2023-01-21T03:37:48.678Z,7.15
2023-01-21T03:38:43.916Z,7.45
2023-01-21T03:39:43.633Z,7.53
2023-01-21T03:40:39.813Z,8.00
2023-01-21T03:41:36.672Z,8.75
2023-01-21T03:42:29.482Z,7.55
2023-01-21T03:43:24.953Z,7.88
2023-01-21T03:44:17.544Z,7.35
2023-01-21T03:45:13.858Z,8.18
2023-01-21T03:46:10.330Z,7.55
2023-01-21T03:47:11.507Z,7.13
2023-01-21T03:48:11.916Z,8.35
2023-01-21T03:49:14.189Z,7.60
2023-01-21T03:50:09.426Z,8.45
2023-01-21T03:51:09.556Z,7.50
2023-01-21T03:52:03.621Z,7.18
2023-01-21T03:52:58.988Z,7.18
2023-01-21T03:53:52.653Z,7.85
2023-01-21T03:54:49.919Z,7.30
2023-01-21T03:55:42.502Z,7.55
2023-01-21T03:56:37.670Z,7.95
2023-01-21T03:57:30.276Z,7.80
2023-01-21T03:58:25.423Z,7.78
2023-01-21T03:59:18.017Z,7.32
2023-01-21T04:00:16.109Z,7.45
2023-01-21T04:01:09.002Z,8.20
2023-01-21T04:02:04.183Z,8.23
2023-01-21T04:02:56.765Z,7.88
2023-01-21T04:03:51.982Z,7.60
2023-01-21T04:04:47.485Z,7.55
2023-01-21T04:05:42.620Z,8.10
2023-01-21T04:06:37.121Z,8.20
2023-01-21T04:07:32.323Z,7.80
2023-01-21T04:08:24.929Z,7.72
2023-01-21T04:09:20.079Z,7.70
2023-01-21T04:10:12.651Z,8.23
2023-01-21T04:11:08.155Z,7.45
2023-01-21T04:12:00.778Z,7.53
2023-01-21T04:12:55.940Z,7.93
2023-01-21T04:13:48.499Z,7.45
2023-01-21T04:14:43.613Z,8.77
2023-01-21T04:15:36.136Z,8.05
2023-01-21T04:16:31.293Z,7.68
2023-01-21T04:17:23.906Z,7.65
2023-01-21T04:18:19.342Z,7.90
2023-01-21T04:19:11.956Z,7.35
2023-01-21T04:20:11.573Z,7.88
2023-01-21T04:21:04.201Z,8.00
2023-01-21T04:21:59.314Z,7.60
2023-01-21T04:22:51.906Z,8.05
2023-01-21T04:23:47.048Z,7.40
2023-01-21T04:24:40.190Z,8.02
2023-01-21T04:25:35.345Z,7.45
2023-01-21T04:26:27.885Z,7.32
2023-01-21T04:27:23.006Z,7.85
2023-01-21T04:28:15.648Z,8.45
2023-01-21T04:29:10.854Z,8.02
2023-01-21T04:30:03.956Z,8.73
2023-01-21T04:30:59.162Z,8.00
2023-01-21T04:31:51.822Z,7.82
2023-01-21T04:32:47.053Z,8.23
2023-01-21T04:33:39.600Z,8.25
2023-01-21T04:34:34.757Z,7.82
2023-01-21T04:35:29.889Z,7.72
2023-01-21T04:36:25.009Z,8.25
2023-01-21T04:37:17.551Z,8.45
2023-01-21T04:38:13.225Z,8.30
2023-01-21T04:39:05.878Z,8.63
2023-01-21T04:40:00.989Z,8.10
2023-01-21T04:40:53.744Z,7.95
2023-01-21T04:41:48.903Z,8.70
2023-01-21T04:42:42.911Z,8.27
2023-01-21T04:43:38.163Z,8.30
2023-01-21T04:44:30.801Z,8.15
2023-01-21T04:45:25.947Z,8.50
2023-01-21T04:46:18.493Z,9.02
2023-01-21T04:47:13.645Z,8.65
2023-01-21T04:48:06.663Z,9.15
2023-01-21T04:49:01.822Z,9.20
2023-01-21T04:49:54.433Z,9.00
2023-01-21T04:50:52.244Z,8.75
2023-01-21T04:51:44.805Z,9.23
2023-01-21T04:52:39.986Z,9.10
2023-01-21T04:53:32.575Z,9.48
2023-01-21T04:54:27.813Z,8.65
2023-01-21T04:55:20.342Z,8.90
2023-01-21T04:56:15.478Z,8.60
2023-01-21T04:57:07.994Z,10.15
2023-01-21T04:58:03.174Z,9.73
2023-01-21T04:58:55.706Z,9.80
2023-01-21T04:59:51.105Z,9.73
2023-01-21T05:00:43.625Z,9.80
2023-01-21T05:01:38.761Z,9.55
2023-01-21T05:02:31.307Z,10.48
2023-01-21T05:03:27.928Z,8.80
2023-01-21T05:04:20.431Z,8.48
2023-01-21T05:05:15.576Z,9.80
2023-01-21T05:06:10.749Z,9.88
2023-01-21T05:07:05.908Z,10.43
2023-01-21T05:07:58.485Z,9.60
2023-01-21T05:08:53.642Z,9.45
2023-01-21T05:09:46.155Z,9.70
2023-01-21T05:10:41.317Z,9.30
2023-01-21T05:11:33.828Z,9.30
2023-01-21T05:12:29.154Z,9.73
2023-01-21T05:13:21.717Z,9.63
2023-01-21T05:14:16.869Z,9.50
2023-01-21T05:15:10.931Z,10.38
2023-01-21T05:16:08.619Z,10.00
2023-01-21T05:17:01.305Z,10.38
2023-01-21T05:17:56.457Z,9.30
2023-01-21T05:18:49.058Z,10.15
2023-01-21T05:19:44.177Z,9.20
2023-01-21T05:20:36.727Z,10.25
2023-01-21T05:21:34.461Z,10.38
2023-01-21T05:22:27.089Z,9.95
2023-01-21T05:23:22.204Z,10.10
2023-01-21T05:24:14.725Z,9.95
2023-01-21T05:25:10.628Z,9.65
2023-01-21T05:26:03.469Z,10.07
2023-01-21T05:26:58.580Z,9.85
2023-01-21T05:27:52.280Z,9.55
2023-01-21T05:28:47.401Z,9.95
2023-01-21T05:29:40.658Z,9.93
2023-01-21T05:30:35.805Z,9.02
2023-01-21T05:31:29.143Z,9.93
2023-01-21T05:32:24.311Z,10.25
2023-01-21T05:33:16.898Z,9.40
2023-01-21T05:34:12.382Z,9.18
2023-01-21T05:35:05.317Z,9.00
2023-01-21T05:36:00.450Z,9.57
2023-01-21T05:36:55.684Z,9.60
2023-01-21T05:37:50.835Z,8.68
2023-01-21T05:38:43.415Z,9.23
2023-01-21T05:39:38.616Z,9.80
2023-01-21T05:40:31.267Z,10.57
2023-01-21T05:41:26.409Z,9.73
2023-01-21T05:42:18.989Z,9.80
2023-01-21T05:43:14.115Z,9.30
2023-01-21T05:44:08.271Z,9.85
2023-01-21T05:45:04.188Z,9.65
2023-01-21T05:45:56.765Z,10.30
2023-01-21T05:46:51.973Z,9.55
2023-01-21T05:47:44.590Z,9.00
2023-01-21T05:48:39.717Z,8.40
2023-01-21T05:49:32.235Z,9.38
2023-01-21T05:50:27.358Z,9.40
2023-01-21T05:51:20.015Z,9.90
2023-01-21T05:52:17.824Z,9.65
2023-01-21T05:53:10.341Z,10.40
2023-01-21T05:54:05.495Z,9.03
2023-01-21T05:55:02.185Z,9.50
2023-01-21T05:55:58.470Z,9.27
2023-01-21T05:56:51.036Z,9.10
2023-01-21T05:57:46.351Z,9.95
2023-01-21T05:58:38.898Z,10.00
2023-01-21T05:59:34.025Z,9.85
2023-01-21T06:00:26.609Z,9.18
2023-01-21T06:01:21.814Z,10.45
2023-01-21T06:02:14.363Z,9.68
2023-01-21T06:03:06.918Z,9.95
2023-01-21T06:04:02.054Z,9.40
2023-01-21T06:04:54.582Z,9.40
2023-01-21T06:05:51.840Z,8.93
2023-01-21T06:06:44.431Z,8.68
2023-01-21T06:07:42.170Z,9.80
2023-01-21T06:08:34.724Z,9.30
2023-01-21T06:09:29.857Z,9.38
2023-01-21T06:10:22.591Z,9.32
2023-01-21T06:11:17.781Z,9.95
2023-01-21T06:12:10.312Z,9.32
2023-01-21T06:13:05.656Z,9.25
2023-01-21T06:13:58.230Z,10.68
2023-01-21T06:14:53.388Z,9.00
2023-01-21T06:15:46.042Z,9.38
2023-01-21T06:16:41.209Z,9.02
2023-01-21T06:17:33.756Z,8.82
2023-01-21T06:18:29.519Z,9.25
2023-01-21T06:19:22.064Z,8.98
2023-01-21T06:20:17.617Z,9.18
2023-01-21T06:21:10.388Z,8.52
2023-01-21T06:22:05.547Z,9.68
2023-01-21T06:23:02.169Z,9.65
2023-01-21T06:23:57.534Z,9.52
2023-01-21T06:24:50.076Z,8.98
2023-01-21T06:25:45.271Z,9.88
2023-01-21T06:26:37.788Z,9.57
2023-01-21T06:27:34.285Z,9.60
2023-01-21T06:28:26.877Z,9.50
2023-01-21T06:29:22.045Z,10.10
2023-01-21T06:30:15.083Z,9.05
2023-01-21T06:31:10.370Z,9.57
2023-01-21T06:32:03.101Z,9.95
2023-01-21T06:32:58.392Z,9.98
2023-01-21T06:33:50.959Z,9.55
2023-01-21T06:34:46.772Z,9.18
2023-01-21T06:35:39.365Z,10.00
2023-01-21T06:36:34.492Z,9.57
2023-01-21T06:37:27.187Z,9.05
2023-01-21T06:38:24.925Z,9.40
2023-01-21T06:39:17.487Z,9.25
2023-01-21T06:40:14.604Z,8.68
2023-01-21T06:41:07.240Z,9.90
2023-01-21T06:42:02.393Z,10.02
2023-01-21T06:42:55.401Z,9.43
2023-01-21T06:43:50.519Z,9.85
2023-01-21T06:44:43.053Z,9.13
2023-01-21T06:45:38.209Z,9.10
2023-01-21T06:46:30.915Z,9.80
2023-01-21T06:47:26.117Z,10.35
2023-01-21T06:48:18.806Z,10.02
2023-01-21T06:49:13.919Z,17.75
2023-01-21T06:50:07.358Z,17.63
2023-01-21T06:51:03.104Z,17.45
2023-01-21T06:51:56.591Z,11.77
2023-01-21T06:52:52.007Z,9.77
2023-01-21T06:53:47.200Z,9.85
2023-01-21T06:54:43.407Z,9.15
2023-01-21T06:55:35.954Z,9.73
2023-01-21T06:56:31.117Z,9.13
2023-01-21T06:57:23.734Z,9.65
2023-01-21T06:58:18.873Z,9.68
2023-01-21T06:59:11.406Z,9.90
2023-01-21T07:00:07.532Z,10.05
2023-01-21T07:01:00.110Z,9.77
2023-01-21T07:01:55.390Z,9.10
2023-01-21T07:02:48.046Z,8.98
2023-01-21T07:03:44.369Z,9.77
2023-01-21T07:04:36.926Z,8.70
2023-01-21T07:05:32.225Z,9.57
2023-01-21T07:06:25.612Z,10.05
2023-01-21T07:07:20.858Z,9.38
2023-01-21T07:08:13.396Z,9.90
2023-01-21T07:09:11.315Z,8.98
2023-01-21T07:10:04.399Z,9.07
2023-01-21T07:10:59.536Z,10.00
2023-01-21T07:11:52.071Z,10.45
2023-01-21T07:12:47.252Z,9.55
2023-01-21T07:13:39.930Z,9.40
2023-01-21T07:14:35.088Z,9.20
2023-01-21T07:15:30.975Z,9.50
2023-01-21T07:16:26.222Z,10.43
2023-01-21T07:17:19.316Z,10.15
2023-01-21T07:18:14.439Z,9.48
2023-01-21T07:19:06.964Z,9.07
2023-01-21T07:20:02.144Z,9.60
2023-01-21T07:20:54.743Z,9.75
2023-01-21T07:21:50.394Z,9.70
2023-01-21T07:22:42.973Z,10.32
2023-01-21T07:23:38.125Z,10.00
2023-01-21T07:24:33.319Z,9.77
2023-01-21T07:25:28.554Z,9.65
2023-01-21T07:26:21.194Z,9.55
2023-01-21T07:27:16.370Z,9.52
2023-01-21T07:28:08.932Z,10.38
2023-01-21T07:29:04.083Z,9.73
2023-01-21T07:29:56.615Z,9.40
2023-01-21T07:30:51.805Z,9.57
2023-01-21T07:31:44.448Z,10.10
2023-01-21T07:32:39.663Z,9.55
2023-01-21T07:33:32.213Z,9.10
2023-01-21T07:34:27.353Z,9.30
2023-01-21T07:35:20.215Z,9.68
2023-01-21T07:36:15.489Z,8.75
2023-01-21T07:37:08.055Z,9.45
2023-01-21T07:38:03.197Z,9.18
2023-01-21T07:38:55.814Z,8.80
2023-01-21T07:39:54.712Z,8.60
2023-01-21T07:40:48.345Z,9.52
2023-01-21T07:41:43.461Z,9.70
2023-01-21T07:42:37.515Z,8.65
2023-01-21T07:43:32.654Z,9.30
2023-01-21T07:44:25.233Z,8.88
2023-01-21T07:45:20.385Z,8.73
2023-01-21T07:46:13.017Z,8.75
2023-01-21T07:47:08.311Z,8.27
2023-01-21T07:48:00.959Z,8.43
2023-01-21T07:48:56.143Z,8.95
2023-01-21T07:49:49.340Z,8.80
2023-01-21T07:50:44.522Z,8.63
2023-01-21T07:51:37.055Z,8.68
2023-01-21T07:52:32.213Z,8.27
2023-01-21T07:53:25.155Z,8.05
2023-01-21T07:54:20.305Z,8.60
2023-01-21T07:55:15.755Z,8.27
2023-01-21T07:56:12.559Z,9.13
2023-01-21T07:57:05.114Z,8.60
2023-01-21T07:58:00.499Z,8.85
2023-01-21T07:58:53.014Z,9.25
2023-01-21T07:59:48.135Z,9.25
2023-01-21T08:00:40.728Z,8.55
2023-01-21T08:01:36.007Z,8.13
2023-01-21T08:02:28.679Z,8.25
2023-01-21T08:03:25.246Z,8.55
2023-01-21T08:04:17.775Z,7.95
2023-01-21T08:05:13.361Z,8.75
2023-01-21T08:06:06.944Z,8.20
2023-01-21T08:07:11.942Z,8.65
2023-01-21T08:08:05.622Z,7.63
2023-01-21T08:09:00.769Z,8.93
2023-01-21T08:09:53.395Z,8.77
2023-01-21T08:10:54.128Z,7.82
2023-01-21T08:11:46.670Z,8.45
2023-01-21T08:12:43.612Z,8.18
2023-01-21T08:13:36.170Z,8.18
2023-01-21T08:14:31.573Z,7.90
2023-01-21T08:15:24.125Z,8.23
2023-01-21T08:16:19.641Z,8.25
2023-01-21T08:17:12.202Z,7.65
2023-01-21T08:18:07.484Z,8.00
2023-01-21T08:19:00.005Z,9.15
2023-01-21T08:19:55.168Z,7.88
2023-01-21T08:20:47.725Z,8.10
2023-01-21T08:21:42.834Z,7.72
2023-01-21T08:22:35.450Z,8.65
2023-01-21T08:23:30.588Z,8.80
2023-01-21T08:24:23.130Z,8.60
2023-01-21T08:25:18.469Z,7.95
2023-01-21T08:26:13.743Z,9.15
2023-01-21T08:27:08.859Z,8.80
2023-01-21T08:28:01.456Z,8.55
2023-01-21T08:28:56.981Z,8.88
2023-01-21T08:29:49.529Z,8.38
2023-01-21T08:30:44.758Z,8.55
2023-01-21T08:31:37.409Z,8.40
2023-01-21T08:32:33.766Z,8.68
2023-01-21T08:33:26.275Z,7.95
2023-01-21T08:34:21.794Z,8.35
2023-01-21T08:35:14.671Z,8.45
2023-01-21T08:36:11.887Z,7.78
2023-01-21T08:37:04.418Z,8.35
2023-01-21T08:38:00.150Z,8.38
2023-01-21T08:38:53.483Z,7.63
2023-01-21T08:39:48.635Z,7.90
2023-01-21T08:40:41.206Z,8.13
2023-01-21T08:41:40.597Z,8.85
2023-01-21T08:42:35.721Z,7.80
2023-01-21T08:43:28.356Z,8.13
2023-01-21T08:44:23.491Z,8.52
2023-01-21T08:45:16.750Z,9.60
2023-01-21T08:46:12.074Z,8.30
2023-01-21T08:47:04.747Z,7.95
2023-01-21T08:47:59.890Z,8.55
2023-01-21T08:48:52.408Z,8.32
2023-01-21T08:49:47.825Z,7.75
2023-01-21T08:50:40.681Z,8.00
2023-01-21T08:51:35.845Z,8.43
2023-01-21T08:52:30.066Z,9.00
2023-01-21T08:53:25.285Z,8.90
2023-01-21T08:54:17.833Z,8.50
2023-01-21T08:55:13.237Z,7.90
2023-01-21T08:56:06.394Z,8.93
2023-01-21T08:57:04.216Z,8.55
2023-01-21T08:57:58.511Z,7.65
2023-01-21T08:58:57.595Z,8.20
2023-01-21T08:59:50.118Z,8.05
2023-01-21T09:00:45.287Z,8.73
2023-01-21T09:01:41.104Z,8.27
2023-01-21T09:02:36.418Z,8.32
2023-01-21T09:03:29.964Z,7.82
2023-01-21T09:04:25.128Z,8.70
2023-01-21T09:05:18.451Z,8.43
2023-01-21T09:06:14.285Z,7.63
2023-01-21T09:07:06.845Z,7.97
2023-01-21T09:08:02.069Z,8.30
2023-01-21T09:08:55.282Z,8.30
2023-01-21T09:09:51.046Z,8.82
2023-01-21T09:10:58.575Z,8.32
2023-01-21T09:11:54.419Z,9.18
2023-01-21T09:12:49.573Z,9.05
2023-01-21T09:13:44.925Z,8.45
2023-01-21T09:14:37.457Z,8.73
2023-01-21T09:15:32.642Z,8.30
2023-01-21T09:16:25.250Z,7.85
2023-01-21T09:17:20.419Z,8.25
2023-01-21T09:18:13.175Z,8.25
2023-01-21T09:19:08.370Z,8.13
2023-01-21T09:20:00.987Z,8.70
2023-01-21T09:20:56.278Z,8.15
2023-01-21T09:21:48.862Z,8.00
2023-01-21T09:22:43.973Z,8.45
2023-01-21T09:23:38.148Z,8.60
2023-01-21T09:24:33.642Z,8.18
2023-01-21T09:25:26.755Z,7.47
2023-01-21T09:26:22.885Z,8.05
2023-01-21T09:27:15.401Z,8.30
2023-01-21T09:28:13.116Z,8.23
2023-01-21T09:29:05.665Z,8.90
2023-01-21T09:30:00.821Z,8.65
2023-01-21T09:30:56.993Z,7.90
2023-01-21T09:31:52.235Z,8.50
2023-01-21T09:32:44.813Z,8.32
2023-01-21T09:33:41.405Z,7.88
2023-01-21T09:34:35.738Z,8.25
2023-01-21T09:35:31.065Z,8.52
2023-01-21T09:36:27.940Z,9.07
2023-01-21T09:37:20.463Z,12.32
2023-01-21T09:38:15.646Z,10.32
2023-01-21T09:39:08.259Z,11.25
2023-01-21T09:40:03.703Z,9.05
2023-01-21T09:41:00.273Z,9.83
2023-01-21T09:41:56.541Z,10.77
2023-01-21T09:42:49.098Z,13.65
2023-01-21T09:43:49.369Z,12.55
2023-01-21T09:44:44.887Z,9.00
2023-01-21T09:45:40.214Z,9.98
2023-01-21T09:46:36.536Z,11.95
2023-01-21T09:47:35.156Z,10.15
2023-01-21T09:48:31.554Z,13.38
2023-01-21T09:49:29.224Z,9.18
2023-01-21T09:50:23.265Z,15.82
2023-01-21T09:51:21.471Z,23.75
2023-01-21T09:52:25.559Z,15.38
2023-01-21T09:53:27.793Z,11.00
2023-01-21T09:54:28.410Z,10.55
2023-01-21T09:55:24.539Z,9.20
2023-01-21T09:56:26.097Z,8.27
2023-01-21T09:57:29.877Z,8.85
2023-01-21T09:58:28.123Z,8.23
2023-01-21T09:59:27.659Z,9.05
2023-01-21T10:00:32.015Z,8.30
2023-01-21T10:01:27.516Z,8.00
2023-01-21T10:02:29.086Z,8.50
2023-01-21T10:03:30.251Z,7.45
2023-01-21T10:04:33.241Z,10.18
2023-01-21T10:06:08.547Z,9.35
2023-01-21T10:07:07.794Z,9.10
2023-01-21T10:08:05.013Z,8.52
2023-01-21T10:09:25.860Z,8.75
2023-01-21T10:10:22.310Z,7.72
2023-01-21T10:11:26.989Z,8.07
2023-01-21T10:12:33.067Z,8.30
2023-01-21T10:13:35.326Z,7.95
2023-01-21T10:14:54.684Z,7.03
2023-01-21T10:15:53.759Z,7.07
2023-01-21T10:16:54.299Z,7.38
2023-01-21T10:17:55.438Z,7.27
2023-01-21T10:18:52.010Z,7.60
2023-01-21T10:19:47.825Z,7.53
2023-01-21T10:20:48.080Z,8.18
2023-01-21T10:21:46.065Z,6.90
2023-01-21T10:22:42.847Z,7.60
2023-01-21T10:23:39.159Z,7.67
2023-01-21T10:24:38.954Z,7.10
2023-01-21T10:25:33.313Z,7.30
2023-01-21T10:26:30.342Z,7.20
2023-01-21T10:27:23.416Z,7.77
2023-01-21T10:28:24.366Z,7.90
2023-01-21T10:29:19.504Z,7.90
2023-01-21T10:30:24.866Z,6.47
2023-01-21T10:31:21.395Z,7.40
2023-01-21T10:32:20.307Z,6.57
2023-01-21T10:33:22.930Z,6.97
2023-01-21T10:34:20.196Z,7.40
2023-01-21T10:35:16.815Z,6.80
2023-01-21T10:36:30.670Z,6.83
2023-01-21T10:37:29.894Z,6.90
2023-01-21T10:38:28.509Z,6.10
2023-01-21T10:39:29.394Z,6.60
2023-01-21T10:40:40.477Z,6.87
2023-01-21T10:41:51.958Z,7.80
2023-01-21T10:42:52.390Z,8.00
2023-01-21T10:43:51.577Z,6.37
2023-01-21T10:44:51.196Z,6.97
2023-01-21T10:45:55.988Z,6.93
2023-01-21T10:46:55.290Z,6.23
2023-01-21T10:47:53.718Z,6.93
2023-01-21T10:48:48.690Z,6.70
2023-01-21T10:49:52.523Z,7.30
2023-01-21T10:50:50.765Z,7.13
2023-01-21T10:51:50.108Z,6.10
2023-01-21T10:52:47.489Z,6.90
2023-01-21T10:53:46.040Z,6.33
2023-01-21T10:54:47.268Z,7.70
2023-01-21T10:55:55.475Z,6.97
2023-01-21T10:56:53.617Z,5.90
2023-01-21T10:57:56.428Z,6.70
2023-01-21T10:58:53.825Z,6.83
2023-01-21T10:59:46.814Z,6.50
2023-01-21T11:00:45.187Z,6.93
2023-01-21T11:01:45.716Z,7.53
2023-01-21T11:02:38.342Z,7.40
2023-01-21T11:03:38.996Z,6.60
2023-01-21T11:04:31.564Z,6.80
2023-01-21T11:05:28.016Z,6.70
2023-01-21T11:06:21.958Z,7.07
2023-01-21T11:07:20.883Z,7.40
2023-01-21T11:08:19.203Z,6.90
2023-01-21T11:09:16.480Z,7.03
2023-01-21T11:10:13.257Z,7.50
2023-01-21T11:11:09.859Z,6.93
2023-01-21T11:12:03.092Z,6.70
2023-01-21T11:12:58.604Z,7.00
2023-01-21T11:13:51.137Z,7.10
2023-01-21T11:14:46.576Z,6.70
2023-01-21T11:15:41.225Z,6.40
2023-01-21T11:16:46.041Z,6.80
2023-01-21T11:17:41.369Z,6.50
2023-01-21T11:18:38.788Z,6.17
2023-01-21T11:19:31.525Z,6.60
2023-01-21T11:20:31.127Z,6.70
2023-01-21T11:21:25.251Z,6.90
2023-01-21T11:22:25.334Z,6.70
2023-01-21T11:23:26.487Z,6.40
2023-01-21T11:24:24.206Z,7.47
2023-01-21T11:25:38.784Z,6.37
2023-01-21T11:26:33.148Z,6.43
2023-01-21T11:27:36.664Z,6.60
2023-01-21T11:28:30.650Z,6.00
2023-01-21T11:29:27.489Z,6.90
2023-01-21T11:30:49.124Z,6.83
2023-01-21T11:31:50.472Z,7.40
2023-01-21T11:32:43.151Z,6.70
2023-01-21T11:33:38.938Z,9.47
2023-01-21T11:34:31.834Z,7.20
2023-01-21T11:35:27.028Z,6.40
2023-01-21T11:36:21.232Z,6.80
2023-01-21T11:37:25.000Z,7.20
2023-01-21T11:38:32.087Z,6.67
2023-01-21T11:39:28.414Z,6.63
2023-01-21T11:40:24.168Z,6.80
2023-01-21T11:41:23.290Z,7.10
2023-01-21T11:42:17.463Z,7.33
2023-01-21T11:43:36.218Z,7.10
2023-01-21T11:44:31.445Z,6.70
2023-01-21T11:45:27.788Z,6.80
2023-01-21T11:46:34.177Z,7.40
2023-01-21T11:47:36.458Z,6.73
2023-01-21T11:48:31.655Z,6.80
2023-01-21T11:49:30.039Z,7.87
2023-01-21T11:50:29.378Z,6.67
2023-01-21T11:51:21.947Z,7.30
2023-01-21T11:52:22.032Z,6.57
2023-01-21T11:53:15.738Z,6.83
2023-01-21T11:54:15.259Z,7.00
2023-01-21T11:55:21.502Z,6.30
2023-01-21T11:56:15.855Z,7.20
2023-01-21T11:57:25.976Z,7.17
2023-01-21T11:58:19.610Z,7.03
2023-01-21T11:59:20.522Z,6.77
2023-01-21T12:00:22.253Z,7.10
2023-01-21T12:01:20.916Z,6.70
2023-01-21T12:02:21.136Z,6.57
2023-01-21T12:03:21.411Z,6.87
2023-01-21T12:04:15.405Z,7.10
2023-01-21T12:05:16.388Z,7.07
2023-01-21T12:06:10.389Z,7.40
2023-01-21T12:07:07.305Z,7.67
2023-01-21T12:08:02.900Z,8.47
2023-01-21T12:08:57.666Z,7.97
2023-01-21T12:10:04.470Z,8.10
2023-01-21T12:11:02.170Z,7.10
2023-01-21T12:12:41.475Z,7.60
2023-01-21T12:13:38.751Z,7.83
2023-01-21T12:14:38.080Z,6.80
2023-01-21T12:15:44.488Z,6.10
2023-01-21T12:16:56.756Z,6.30
2023-01-21T12:17:53.349Z,6.60
2023-01-21T12:19:10.549Z,6.00
2023-01-21T12:20:18.367Z,6.30
2023-01-21T12:21:22.606Z,6.07
2023-01-21T12:22:31.883Z,5.90
2023-01-21T12:23:49.563Z,6.00
2023-01-21T12:24:53.197Z,6.00
2023-01-21T12:25:54.679Z,5.53
2023-01-21T12:26:54.000Z,5.93
2023-01-21T12:27:53.778Z,6.10
2023-01-21T12:29:12.677Z,5.53
2023-01-21T12:30:16.163Z,5.80
2023-01-21T12:31:22.825Z,6.00
2023-01-21T12:32:23.613Z,5.30